Astur — CURM5 — position and weather

sailwx.info

Track history (hours):
 
Tides and Currents Weather Stations Pressure Air Temp Water Temp Dewpoint Dewpoint Depression Visibility Wind Speed Wind Dir Waves Ship Positions

Astur

Last reported at 2018-Feb-09 00:00 UTC. Time now 2018-Feb-17 23:55 UTC.
Position N 37°08' W 008°32'.
Warning: this ship's position is 8 days out of date.

Length 21 m.

Type: Ship. MMSI: 263275000.

Date/timePositionNaut miles runAvg speedWind from/ knotsBaromVisibWave heightAir tempDewpointWater temp
2018-Feb-09 00:00N 37°08' W 008°32'0 0.0
2018-Feb-08 23:30N 37°08' W 008°32'7 0.1
2018-Feb-07 02:59N 37°03' W 008°26'4 8.4
2018-Feb-07 02:30N 37°05' W 008°30'3 5.8
2018-Feb-07 02:00N 37°08' W 008°32'0 0.0
2018-Feb-07 01:28N 37°08' W 008°32'0 0.0
2018-Feb-07 01:00N 37°08' W 008°32'0 0.0
2018-Feb-07 00:10N 37°08' W 008°32'0 0.0
2018-Feb-06 23:57N 37°08' W 008°32'0 0.0
2018-Feb-06 23:17N 37°08' W 008°32'0 0.0
2018-Feb-06 22:59N 37°08' W 008°32'0 0.0
2018-Feb-06 22:23N 37°08' W 008°32'0 0.0
2018-Feb-06 21:59N 37°08' W 008°32'0 0.0
2018-Feb-06 21:30N 37°08' W 008°32'0 0.0
2018-Feb-06 21:00N 37°08' W 008°32'0 0.7
2018-Feb-06 20:30N 37°08' W 008°32'4 8.0
2018-Feb-06 20:00N 37°04' W 008°31'4 8.4
2018-Feb-06 19:29N 36°59' W 008°30'4 8.1
2018-Feb-06 19:00N 36°56' W 008°29'13 0.3
2018-Feb-04 19:29N 37°08' W 008°32'  
2018-Feb-02 03:06N 37°08' W 008°32'0 0.0
2018-Feb-02 02:55N 37°08' W 008°32'0 0.0
2018-Feb-02 02:30N 37°08' W 008°32'0 0.0
2018-Feb-02 01:59N 37°08' W 008°32'0 0.0
2018-Feb-02 01:30N 37°08' W 008°32'0 0.0
2018-Feb-02 00:59N 37°08' W 008°32'0 0.0
2018-Feb-02 00:30N 37°08' W 008°32'  
Track history (hours):
 
Tides and Currents Weather Stations Pressure Air Temp Water Temp Dewpoint Dewpoint Depression Visibility Wind Speed Wind Dir Waves Ship Positions

Astur

Last reported at 2018-Feb-09 00:00 UTC. Time now 2018-Feb-17 23:55 UTC.
Position N 37°08' W 008°32'.
Warning: this ship's position is 8 days out of date.

Length 21 m.

Type: Ship. MMSI: 263275000.

Date/timePositionNaut miles runAvg speedWind from/ knotsBaromVisibWave heightAir tempDewpointWater temp
2018-Feb-09 00:00N 37°08' W 008°32'0 0.0
2018-Feb-08 23:30N 37°08' W 008°32'7 0.1
2018-Feb-07 02:59N 37°03' W 008°26'4 8.4
2018-Feb-07 02:30N 37°05' W 008°30'3 5.8
2018-Feb-07 02:00N 37°08' W 008°32'0 0.0
2018-Feb-07 01:28N 37°08' W 008°32'0 0.0
2018-Feb-07 01:00N 37°08' W 008°32'0 0.0
2018-Feb-07 00:10N 37°08' W 008°32'0 0.0
2018-Feb-06 23:57N 37°08' W 008°32'0 0.0
2018-Feb-06 23:17N 37°08' W 008°32'0 0.0
2018-Feb-06 22:59N 37°08' W 008°32'0 0.0
2018-Feb-06 22:23N 37°08' W 008°32'0 0.0
2018-Feb-06 21:59N 37°08' W 008°32'0 0.0
2018-Feb-06 21:30N 37°08' W 008°32'0 0.0
2018-Feb-06 21:00N 37°08' W 008°32'0 0.7
2018-Feb-06 20:30N 37°08' W 008°32'4 8.0
2018-Feb-06 20:00N 37°04' W 008°31'4 8.4
2018-Feb-06 19:29N 36°59' W 008°30'4 8.1
2018-Feb-06 19:00N 36°56' W 008°29'13 0.3
2018-Feb-04 19:29N 37°08' W 008°32'  
2018-Feb-02 03:06N 37°08' W 008°32'0 0.0
2018-Feb-02 02:55N 37°08' W 008°32'0 0.0
2018-Feb-02 02:30N 37°08' W 008°32'0 0.0
2018-Feb-02 01:59N 37°08' W 008°32'0 0.0
2018-Feb-02 01:30N 37°08' W 008°32'0 0.0
2018-Feb-02 00:59N 37°08' W 008°32'0 0.0
2018-Feb-02 00:30N 37°08' W 008°32'  

Dump ship's entire track history